Peers, Canada
Current Conditions -  °F | °C
As of 1:14 PM on Sunday 21 Dec 2014 (Local Time) from CYET Reporting Station
Few Clouds Few Clouds  
Wind Chill: 25°   Ceiling: Unl
Heat Index: 34°   Visibility: 9mi
Dew Point: 32°   Wind: 12mph
Humidity: 93%   Direction: 290°WNW
Pressure: 29.41"   Gusts: NA
Location:  53.68°N, 115.99°W
Report Text: CYET 212014Z AUTO 29010KT 9SM FEW048 01/M00 A2941 RMK SLP000
Loading
Personal Weather Stations






























Interactive Weather Map New forecast layout! Learn more

10-Day Weather Forecast

Advertisements
Track Severe Weather on mobile